Overview Statistics Trail Chart Weather Telemetry Raw packets
 

This is the latest recevied weather packets stored in our database for station/object N0MR. If no packets are shown the sender has not sent any weather packets the latest 10 day(s).

<< 13 14 15 16 17 18 19 >>
Time Temp. Humidity Pressure Rain* Wind** Luminosity Snow
1788387999 25.56° C 49% 1011.2 hPa 0 mm - - -
1788387400 25.56° C 49% 1011.2 hPa 0 mm - - -
1788386800 26.11° C 46% 1011.1 hPa 0 mm - - -
1788386201 26.11° C 46% 1011.1 hPa 0 mm - - -
1788385610 26.11° C 46% 1011.1 hPa 0 mm - - -
1788384400 26.11° C 49% 1011.2 hPa 0 mm - - -
1788383801 26.11° C 47% 1011 hPa 0 mm - - -
1788383200 26.11° C 47% 1011 hPa 0 mm - - -
1788382601 26.11° C 50% 1011.2 hPa 0 mm - - -
1788382000 26.11° C 50% 1011.2 hPa 0 mm - - -
1788381404 25.56° C 50% 1011.3 hPa 0 mm - - -
1788380800 25.56° C 50% 1011.3 hPa 0 mm - - -
1788380200 25.56° C 51% 1011.5 hPa 0 mm - - -
1788379600 25.56° C 51% 1011.5 hPa 0 mm - - -
1788379000 25.56° C 51% 1011.4 hPa 0 mm - - -
1788378401 25.56° C 51% 1011.4 hPa 0 mm - - -
1788377801 25° C 51% 1011.5 hPa 0 mm - - -
1788377201 25° C 51% 1011.5 hPa 0 mm - - -
1788376601 25.56° C 50% 1011.6 hPa 0 mm - - -
1788376001 25.56° C 50% 1011.6 hPa 0 mm - - -
1788375401 25.56° C 51% 1011.8 hPa 0 mm - - -
1788374801 25.56° C 51% 1011.8 hPa 0 mm - - -
1788374201 25° C 54% 1011.8 hPa 1.52 mm - - -
1788373600 23.89° C 56% 1012 hPa 1.52 mm - - -
1788373000 23.89° C 56% 1012 hPa 1.52 mm - - -

* Rain latest hour (hover to see other rain measurements)
** Current wind speed in m/s (hover to see current wind gust speed)